createdAt,value
2019-04-01T00:00:18.036Z,8.60
2019-04-01T00:02:48.462Z,8.60
2019-04-01T00:05:19.114Z,8.60
2019-04-01T00:07:49.543Z,8.50
2019-04-01T00:10:20.098Z,8.50
2019-04-01T00:12:50.555Z,8.50
2019-04-01T00:15:20.953Z,8.60
2019-04-01T00:17:51.342Z,8.60
2019-04-01T00:20:21.746Z,8.60
2019-04-01T00:22:52.350Z,8.60
2019-04-01T00:25:23.141Z,8.60
2019-04-01T00:27:53.626Z,8.60
2019-04-01T00:30:24.079Z,8.50
2019-04-01T00:32:54.545Z,8.50
2019-04-01T00:35:24.935Z,8.60
2019-04-01T00:37:55.403Z,8.60
2019-04-01T00:40:25.846Z,8.60
2019-04-01T00:43:04.115Z,8.60
2019-04-01T00:45:36.093Z,8.50
2019-04-01T00:48:07.034Z,8.50
2019-04-01T00:50:37.494Z,8.40
2019-04-01T00:53:07.932Z,8.40
2019-04-01T00:55:38.313Z,8.40
2019-04-01T00:58:08.708Z,8.30
2019-04-01T01:00:39.115Z,8.20
2019-04-01T01:03:09.507Z,8.10
2019-04-01T01:05:40.163Z,8.00
2019-04-01T01:08:10.544Z,7.90
2019-04-01T01:10:40.920Z,7.90
2019-04-01T01:13:11.419Z,7.90
2019-04-01T01:15:41.844Z,7.90
2019-04-01T01:18:12.258Z,8.00
2019-04-01T01:20:42.699Z,8.10
2019-04-01T01:23:13.033Z,8.30
2019-04-01T01:25:43.598Z,8.40
2019-04-01T01:28:13.953Z,8.20
2019-04-01T01:30:44.498Z,8.20
2019-04-01T01:33:14.897Z,8.20
2019-04-01T01:35:45.298Z,8.10
2019-04-01T01:38:15.731Z,8.00
2019-04-01T01:40:46.124Z,7.90
2019-04-01T01:43:16.540Z,7.90
2019-04-01T01:45:47.006Z,8.00
2019-04-01T01:48:17.400Z,7.90
2019-04-01T01:50:47.894Z,7.90
2019-04-01T01:53:18.917Z,7.90
2019-04-01T01:55:49.395Z,7.80
2019-04-01T01:58:19.748Z,7.90
2019-04-01T02:00:50.125Z,7.80
2019-04-01T02:03:20.716Z,7.80
2019-04-01T02:05:51.168Z,7.70
2019-04-01T02:08:21.600Z,7.80
2019-04-01T02:10:52.037Z,7.70
2019-04-01T02:13:22.546Z,7.60
2019-04-01T02:15:52.929Z,7.50
2019-04-01T02:18:23.433Z,7.40
2019-04-01T02:20:53.854Z,7.30
2019-04-01T02:23:24.300Z,7.30
2019-04-01T02:25:54.787Z,7.10
2019-04-01T02:28:25.216Z,7.00
2019-04-01T02:30:55.627Z,7.00
2019-04-01T02:33:26.039Z,7.00
2019-04-01T02:35:56.476Z,7.00
2019-04-01T02:38:26.908Z,7.00
2019-04-01T02:40:57.429Z,6.90
2019-04-01T02:43:27.876Z,6.80
2019-04-01T02:45:58.248Z,6.80
2019-04-01T02:48:28.709Z,6.80
2019-04-01T02:50:59.092Z,6.80
2019-04-01T02:53:29.642Z,6.90
2019-04-01T02:56:00.025Z,6.90
2019-04-01T02:58:30.423Z,6.80
2019-04-01T03:01:00.882Z,6.80
2019-04-01T03:03:31.413Z,6.80
2019-04-01T03:06:01.876Z,6.90
2019-04-01T03:08:32.248Z,6.80
2019-04-01T03:11:02.739Z,6.90
2019-04-01T03:13:33.329Z,7.00
2019-04-01T03:16:03.747Z,7.10
2019-04-01T03:18:34.176Z,7.20
2019-04-01T03:21:04.573Z,7.10
2019-04-01T03:23:34.966Z,7.10
2019-04-01T03:26:05.437Z,7.00
2019-04-01T03:28:35.845Z,7.00
2019-04-01T03:31:06.283Z,6.90
2019-04-01T03:33:36.720Z,6.80
2019-04-01T03:36:07.137Z,6.90
2019-04-01T03:38:37.566Z,7.20
2019-04-01T03:41:08.139Z,7.60
2019-04-01T03:43:40.425Z,8.10
2019-04-01T03:46:12.566Z,8.50
2019-04-01T03:48:43.538Z,8.80
2019-04-01T03:51:17.247Z,9.10
2019-04-01T03:53:50.900Z,9.30
2019-04-01T03:56:28.923Z,9.90
2019-04-01T03:59:06.225Z,10.10
2019-04-01T04:01:38.515Z,10.00
2019-04-01T04:04:16.940Z,9.90
2019-04-01T04:06:46.736Z,10.20
2019-04-01T04:09:22.056Z,10.40
2019-04-01T04:11:53.835Z,10.60
2019-04-01T04:14:24.455Z,10.70
2019-04-01T04:16:55.263Z,10.70
2019-04-01T04:19:39.115Z,10.90
2019-04-01T04:22:10.877Z,11.50
2019-04-01T04:24:43.964Z,12.30
2019-04-01T04:27:17.266Z,12.20
2019-04-01T04:30:17.738Z,12.20
2019-04-01T04:32:45.019Z,11.80
2019-04-01T04:35:19.310Z,12.20
2019-04-01T04:38:02.813Z,13.40
2019-04-01T04:40:46.925Z,13.30
2019-04-01T04:43:21.862Z,14.00
2019-04-01T04:46:02.807Z,13.80
2019-04-01T04:48:33.314Z,14.40
2019-04-01T04:51:12.845Z,14.50
2019-04-01T04:53:43.232Z,14.80
2019-04-01T04:56:13.723Z,14.80
2019-04-01T04:58:44.289Z,15.30
2019-04-01T05:01:14.704Z,15.60
2019-04-01T05:03:46.726Z,15.70
2019-04-01T05:06:20.159Z,16.30
2019-04-01T05:08:50.676Z,15.10
2019-04-01T05:11:21.127Z,15.20
2019-04-01T05:13:51.961Z,15.50
2019-04-01T05:16:25.165Z,15.80
2019-04-01T05:18:55.651Z,17.40
2019-04-01T05:21:28.979Z,16.20
2019-04-01T05:24:00.391Z,15.60
2019-04-01T05:26:31.733Z,15.80
2019-04-01T05:29:04.467Z,15.30
2019-04-01T05:31:38.478Z,16.00
2019-04-01T05:34:12.868Z,16.50
2019-04-01T05:36:43.429Z,16.40
2019-04-01T05:39:13.798Z,16.70
2019-04-01T05:41:44.501Z,17.20
2019-04-01T05:44:15.392Z,17.90
2019-04-01T05:46:45.794Z,18.10
2019-04-01T05:49:16.608Z,19.80
2019-04-01T05:51:46.983Z,20.40
2019-04-01T05:54:17.547Z,19.40
2019-04-01T05:56:47.937Z,19.20
2019-04-01T05:59:18.439Z,18.80
2019-04-01T06:01:50.273Z,18.70
2019-04-01T06:04:20.696Z,17.60
2019-04-01T06:06:57.679Z,16.70
2019-04-01T06:09:28.239Z,16.10
2019-04-01T06:11:58.844Z,16.70
2019-04-01T06:14:29.458Z,17.20
2019-04-01T06:17:00.056Z,16.20
2019-04-01T06:19:30.446Z,15.90
2019-04-01T06:22:00.901Z,15.30
2019-04-01T06:24:32.103Z,14.40
2019-04-01T06:27:03.010Z,13.80
2019-04-01T06:29:33.480Z,13.10
2019-04-01T06:32:03.962Z,12.90
2019-04-01T06:34:34.877Z,12.90
2019-04-01T06:37:05.491Z,12.80
2019-04-01T06:39:35.868Z,12.20
2019-04-01T06:42:07.253Z,12.00
2019-04-01T06:44:38.093Z,11.80
2019-04-01T06:47:08.529Z,12.00
2019-04-01T06:49:38.992Z,12.10
2019-04-01T06:52:12.066Z,12.30
2019-04-01T06:54:43.879Z,12.60
2019-04-01T06:57:14.763Z,12.80
2019-04-01T06:59:45.662Z,12.90
2019-04-01T07:02:16.274Z,13.10
2019-04-01T07:04:47.247Z,13.30
2019-04-01T07:07:19.378Z,13.50
2019-04-01T07:09:50.821Z,13.60
2019-04-01T07:12:21.389Z,13.70
2019-04-01T07:14:51.796Z,13.80
2019-04-01T07:17:22.275Z,13.90
2019-04-01T07:19:52.674Z,13.80
2019-04-01T07:22:23.119Z,13.70
2019-04-01T07:24:53.604Z,13.80
2019-04-01T07:27:24.056Z,13.70
2019-04-01T07:29:54.511Z,13.70
2019-04-01T07:32:25.027Z,13.60
2019-04-01T07:34:55.426Z,13.50
2019-04-01T07:37:26.266Z,13.50
2019-04-01T07:39:56.727Z,13.40
2019-04-01T07:42:27.097Z,13.70
2019-04-01T07:44:58.127Z,13.90
2019-04-01T07:47:31.055Z,14.10
2019-04-01T07:50:02.115Z,14.30
2019-04-01T07:52:32.586Z,14.50
2019-04-01T07:55:03.153Z,14.60
2019-04-01T07:57:33.673Z,14.70
2019-04-01T08:00:06.375Z,14.80
2019-04-01T08:02:36.834Z,14.80
2019-04-01T08:05:07.731Z,14.80
2019-04-01T08:07:38.187Z,14.90
2019-04-01T08:10:09.586Z,15.00
2019-04-01T08:12:40.300Z,15.00
2019-04-01T08:15:11.937Z,15.10
2019-04-01T08:17:42.454Z,15.20
2019-04-01T08:20:18.710Z,15.30
2019-04-01T08:22:51.333Z,15.40
2019-04-01T08:25:21.857Z,15.30
2019-04-01T08:27:57.464Z,15.30
2019-04-01T08:30:33.251Z,15.40
2019-04-01T08:33:03.773Z,15.70
2019-04-01T08:35:34.409Z,15.80
2019-04-01T08:38:04.997Z,15.90
2019-04-01T08:40:37.630Z,16.10
2019-04-01T08:43:08.116Z,16.40
2019-04-01T08:45:39.384Z,16.60
2019-04-01T08:48:11.405Z,16.60
2019-04-01T08:50:42.018Z,16.70
2019-04-01T08:53:12.689Z,16.80
2019-04-01T08:55:43.258Z,16.90
2019-04-01T08:58:13.837Z,16.80
2019-04-01T09:00:44.423Z,17.00
2019-04-01T09:03:16.595Z,17.10
2019-04-01T09:05:47.126Z,17.10
2019-04-01T09:08:17.634Z,17.10
2019-04-01T09:10:48.732Z,17.20
2019-04-01T09:13:19.453Z,17.30
2019-04-01T09:15:49.917Z,17.40
2019-04-01T09:18:22.776Z,17.40
2019-04-01T09:20:53.266Z,17.50
2019-04-01T09:23:23.915Z,17.60
2019-04-01T09:25:55.451Z,17.60
2019-04-01T09:28:25.949Z,17.60
2019-04-01T09:30:56.406Z,17.70
2019-04-01T09:33:26.797Z,17.80
2019-04-01T09:35:57.298Z,17.80
2019-04-01T09:38:27.737Z,17.80
2019-04-01T09:40:58.172Z,17.90
2019-04-01T09:43:33.416Z,18.00
2019-04-01T09:46:04.836Z,18.10
2019-04-01T09:48:36.238Z,18.20
2019-04-01T09:51:06.636Z,18.30
2019-04-01T09:53:37.200Z,18.30
2019-04-01T09:56:09.640Z,18.20
2019-04-01T09:58:40.199Z,18.20
2019-04-01T10:01:10.584Z,18.30
2019-04-01T10:03:41.056Z,18.40
2019-04-01T10:06:11.534Z,18.30
2019-04-01T10:08:43.584Z,18.30
2019-04-01T10:11:15.747Z,18.50
2019-04-01T10:13:46.373Z,18.60
2019-04-01T10:16:16.850Z,18.60
2019-04-01T10:18:47.278Z,18.50
2019-04-01T10:21:17.797Z,18.50
2019-04-01T10:23:48.341Z,18.50
2019-04-01T10:26:18.873Z,18.50
2019-04-01T10:28:49.550Z,18.60
2019-04-01T10:31:20.019Z,18.50
2019-04-01T10:33:50.478Z,18.60
2019-04-01T10:36:20.919Z,18.70
2019-04-01T10:38:51.500Z,18.50
2019-04-01T10:41:22.051Z,18.50
2019-04-01T10:43:52.437Z,18.50
2019-04-01T10:46:28.676Z,18.60
2019-04-01T10:48:59.124Z,18.70
2019-04-01T10:51:29.666Z,18.80
2019-04-01T10:54:00.579Z,18.80
2019-04-01T10:56:31.376Z,18.90
2019-04-01T10:59:05.258Z,18.80
2019-04-01T11:01:37.473Z,19.10
2019-04-01T11:04:11.888Z,19.00
2019-04-01T11:06:46.716Z,19.00
2019-04-01T11:09:17.687Z,19.10
2019-04-01T11:11:52.396Z,19.20
2019-04-01T11:14:23.843Z,19.20
2019-04-01T11:16:58.609Z,19.20
2019-04-01T11:19:29.818Z,19.10
2019-04-01T11:22:00.597Z,19.10
2019-04-01T11:24:31.025Z,19.00
2019-04-01T11:27:03.859Z,18.90
2019-04-01T11:29:34.674Z,19.10
2019-04-01T11:32:05.442Z,19.30
2019-04-01T11:34:36.119Z,19.40
2019-04-01T11:37:06.627Z,19.30
2019-04-01T11:39:38.856Z,19.50
2019-04-01T11:42:14.138Z,19.50
2019-04-01T11:44:49.362Z,19.60
2019-04-01T11:47:22.230Z,19.60
2019-04-01T11:49:54.440Z,19.60
2019-04-01T11:52:27.705Z,19.60
2019-04-01T11:55:20.655Z,19.50
2019-04-01T11:57:51.229Z,19.50
2019-04-01T12:00:26.227Z,19.50
2019-04-01T12:02:57.940Z,19.50
2019-04-01T12:05:28.371Z,19.50
2019-04-01T12:07:58.875Z,19.40
2019-04-01T12:10:30.936Z,19.30
2019-04-01T12:13:03.514Z,19.40
2019-04-01T12:15:35.495Z,19.30
2019-04-01T12:18:07.179Z,19.40
2019-04-01T12:20:39.166Z,19.40
2019-04-01T12:23:11.442Z,19.40
2019-04-01T12:25:41.865Z,19.40
2019-04-01T12:28:12.345Z,19.20
2019-04-01T12:30:42.823Z,19.20
2019-04-01T12:33:13.319Z,19.20
2019-04-01T12:35:49.806Z,19.20
2019-04-01T12:38:26.770Z,19.40
2019-04-01T12:40:55.758Z,19.40
2019-04-01T12:43:27.918Z,19.50
2019-04-01T12:45:59.913Z,19.60
2019-04-01T12:48:31.843Z,19.70
2019-04-01T12:51:03.635Z,19.60
2019-04-01T12:53:34.073Z,19.50
2019-04-01T12:56:05.982Z,19.50
2019-04-01T12:58:36.363Z,19.60
2019-04-01T13:01:06.854Z,19.70
2019-04-01T13:03:37.362Z,19.90
2019-04-01T13:06:07.767Z,19.90
2019-04-01T13:08:38.147Z,19.90
2019-04-01T13:11:08.619Z,19.60
2019-04-01T13:13:39.341Z,19.50
2019-04-01T13:16:12.012Z,19.30
2019-04-01T13:18:45.181Z,19.10
2019-04-01T13:21:18.758Z,19.20
2019-04-01T13:23:49.312Z,19.20
2019-04-01T13:26:23.465Z,19.20
2019-04-01T13:28:57.785Z,19.20
2019-04-01T13:31:29.743Z,19.30
2019-04-01T13:34:00.796Z,19.20
2019-04-01T13:36:37.223Z,19.10
2019-04-01T13:39:09.066Z,19.00
2019-04-01T13:41:42.762Z,19.00
2019-04-01T13:44:19.477Z,19.00
2019-04-01T13:46:51.728Z,19.00
2019-04-01T13:49:25.158Z,19.10
2019-04-01T13:51:55.585Z,19.20
2019-04-01T13:54:26.109Z,19.50
2019-04-01T13:56:56.576Z,19.50
2019-04-01T13:59:27.110Z,19.60
2019-04-01T14:02:01.531Z,19.50
2019-04-01T14:04:32.065Z,19.50
2019-04-01T14:07:07.096Z,19.50
2019-04-01T14:09:44.106Z,19.40
2019-04-01T14:12:17.306Z,19.40
2019-04-01T14:14:47.912Z,19.20
2019-04-01T14:17:19.262Z,19.10
2019-04-01T14:19:53.663Z,19.00
2019-04-01T14:22:26.942Z,19.00
2019-04-01T14:24:57.492Z,18.90
2019-04-01T14:27:27.997Z,18.80
2019-04-01T14:29:58.529Z,18.70
2019-04-01T14:32:31.606Z,18.80
2019-04-01T14:35:03.660Z,18.70
2019-04-01T14:37:37.167Z,18.70
2019-04-01T14:40:10.765Z,18.60
2019-04-01T14:42:41.326Z,18.50
2019-04-01T14:45:11.994Z,18.40
2019-04-01T14:47:56.643Z,18.40
2019-04-01T14:50:18.718Z,18.40
2019-04-01T14:52:49.772Z,18.20
2019-04-01T14:55:22.010Z,18.20
2019-04-01T14:57:54.866Z,18.10
2019-04-01T15:00:25.559Z,18.00
2019-04-01T15:02:56.003Z,17.90
2019-04-01T15:05:26.683Z,17.90
2019-04-01T15:07:57.139Z,17.90
2019-04-01T15:10:27.616Z,17.80
2019-04-01T15:13:05.027Z,17.80
2019-04-01T15:15:30.159Z,17.80
2019-04-01T15:18:00.867Z,17.70
2019-04-01T15:20:31.482Z,17.60
2019-04-01T15:23:01.922Z,17.50
2019-04-01T15:25:32.426Z,17.50
2019-04-01T15:28:02.937Z,17.40
2019-04-01T15:30:36.518Z,17.30
2019-04-01T15:33:07.447Z,17.20
2019-04-01T15:35:37.976Z,17.10
2019-04-01T15:38:08.466Z,17.00
2019-04-01T15:40:38.944Z,16.90
2019-04-01T15:43:09.346Z,16.80
2019-04-01T15:45:39.783Z,16.70
2019-04-01T15:48:10.290Z,16.60
2019-04-01T15:50:40.596Z,16.50
2019-04-01T15:53:11.052Z,16.40
2019-04-01T15:55:41.481Z,16.30
2019-04-01T15:58:12.046Z,16.20
2019-04-01T16:00:45.369Z,16.00
2019-04-01T16:03:15.746Z,15.90
2019-04-01T16:05:46.234Z,15.80
2019-04-01T16:08:19.426Z,15.70
2019-04-01T16:10:50.356Z,15.60
2019-04-01T16:13:21.342Z,15.50
2019-04-01T16:15:52.017Z,15.40
2019-04-01T16:18:22.489Z,15.30
2019-04-01T16:20:59.477Z,15.30
2019-04-01T16:23:30.336Z,15.10
2019-04-01T16:26:01.048Z,15.10
2019-04-01T16:28:31.531Z,15.00
2019-04-01T16:31:02.762Z,14.90
2019-04-01T16:33:33.185Z,14.80
2019-04-01T16:36:03.790Z,14.70
2019-04-01T16:38:40.145Z,14.60
2019-04-01T16:41:29.883Z,14.50
2019-04-01T16:43:59.922Z,14.40
2019-04-01T16:46:32.753Z,14.40
2019-04-01T16:49:03.295Z,14.30
2019-04-01T16:51:41.329Z,14.20
2019-04-01T16:54:20.292Z,14.20
2019-04-01T16:57:03.904Z,14.10
2019-04-01T16:59:34.812Z,14.00
2019-04-01T17:02:18.131Z,14.00
2019-04-01T17:04:49.595Z,13.90
2019-04-01T17:07:24.506Z,13.80
2019-04-01T17:10:01.066Z,13.80
2019-04-01T17:46:04.032Z,12.90
2019-04-01T17:48:38.034Z,12.80
2019-04-01T17:51:28.360Z,12.80
2019-04-01T17:54:19.173Z,12.70
2019-04-01T17:56:52.025Z,12.60
2019-04-01T17:59:27.263Z,12.50
2019-04-01T18:01:59.846Z,12.50
2019-04-01T18:04:35.206Z,12.40
2019-04-01T18:07:07.787Z,12.40
2019-04-01T18:09:40.045Z,12.30
2019-04-01T18:12:20.383Z,12.30
2019-04-01T18:14:54.028Z,12.30
2019-04-01T18:17:28.216Z,12.30
2019-04-01T18:20:01.444Z,12.20
2019-04-01T18:22:34.435Z,12.10
2019-04-01T18:25:14.709Z,12.10
2019-04-01T18:27:52.864Z,12.10
2019-04-01T18:30:28.012Z,12.00
2019-04-01T18:33:01.819Z,12.00
2019-04-01T18:35:35.881Z,12.00
2019-04-01T18:38:08.411Z,11.90
2019-04-01T18:40:42.049Z,11.90
2019-04-01T18:43:18.834Z,11.80
2019-04-01T18:45:53.172Z,11.80
2019-04-01T18:48:28.135Z,11.70
2019-04-01T18:51:01.869Z,11.70
2019-04-01T18:53:36.384Z,11.60
2019-04-01T18:56:10.886Z,11.60
2019-04-01T18:58:44.699Z,11.50
2019-04-01T19:01:17.985Z,11.40
2019-04-01T19:03:50.398Z,11.40
2019-04-01T19:06:24.118Z,11.30
2019-04-01T19:09:08.793Z,11.30
2019-04-01T19:11:34.267Z,11.20
2019-04-01T19:14:11.074Z,11.10
2019-04-01T19:16:51.370Z,11.10
2019-04-01T19:19:23.509Z,11.00
2019-04-01T19:21:56.570Z,11.00
2019-04-01T19:24:28.376Z,10.90
2019-04-01T19:27:03.030Z,10.90
2019-04-01T19:29:34.131Z,10.80
2019-04-01T19:32:04.952Z,10.70
2019-04-01T19:34:36.148Z,10.70
2019-04-01T19:37:07.597Z,10.70
2019-04-01T19:39:38.090Z,10.60
2019-04-01T19:42:08.527Z,10.60
2019-04-01T19:44:38.987Z,10.50
2019-04-01T19:47:09.393Z,10.50
2019-04-01T19:49:40.177Z,10.40
2019-04-01T19:52:10.823Z,10.40
2019-04-01T19:54:41.305Z,10.30
2019-04-01T19:57:11.802Z,10.30
2019-04-01T19:59:42.245Z,10.30
2019-04-01T20:02:14.370Z,10.20
2019-04-01T20:04:45.000Z,10.10
2019-04-01T20:07:17.063Z,10.10
2019-04-01T20:09:48.622Z,10.10
2019-04-01T20:12:19.151Z,10.00
2019-04-01T20:14:49.591Z,10.00
2019-04-01T20:17:20.037Z,10.00
2019-04-01T20:19:50.618Z,9.90
2019-04-01T20:22:21.071Z,9.80
2019-04-01T20:24:51.728Z,9.80
2019-04-01T20:27:26.368Z,9.80
2019-04-01T20:29:56.833Z,9.80
2019-04-01T20:32:27.181Z,9.70
2019-04-01T20:34:59.585Z,9.70
2019-04-01T20:37:31.270Z,9.60
2019-04-01T20:40:03.440Z,9.60
2019-04-01T20:42:35.242Z,9.60
2019-04-01T20:45:10.806Z,9.50
2019-04-01T20:47:40.692Z,9.50
2019-04-01T20:50:11.998Z,9.50
2019-04-01T20:52:42.607Z,9.50
2019-04-01T20:55:13.449Z,9.40
2019-04-01T20:57:46.080Z,9.30
2019-04-01T21:00:18.162Z,9.30
2019-04-01T21:02:48.581Z,9.30
2019-04-01T21:05:19.236Z,9.20
2019-04-01T21:07:49.637Z,9.20
2019-04-01T21:10:20.042Z,9.10
2019-04-01T21:12:50.459Z,9.10
2019-04-01T21:15:20.924Z,9.10
2019-04-01T21:17:52.069Z,9.10
2019-04-01T21:20:23.037Z,9.00
2019-04-01T21:22:53.493Z,9.00
2019-04-01T21:25:24.475Z,9.00
2019-04-01T21:27:56.280Z,8.90
2019-04-01T21:30:26.827Z,8.90
2019-04-01T21:32:57.217Z,8.90
2019-04-01T21:35:27.748Z,8.80
2019-04-01T21:37:58.172Z,8.80
2019-04-01T21:40:28.648Z,8.80
2019-04-01T21:42:59.049Z,8.70
2019-04-01T21:45:29.519Z,8.70
2019-04-01T21:47:59.943Z,8.70
2019-04-01T21:50:30.327Z,8.60
2019-04-01T21:53:01.221Z,8.60
2019-04-01T21:55:32.822Z,8.60
2019-04-01T21:58:03.258Z,8.60
2019-04-01T22:00:35.380Z,8.50
2019-04-01T22:03:05.843Z,8.50
2019-04-01T22:05:36.371Z,8.50
2019-04-01T22:08:07.208Z,8.40
2019-04-01T22:10:39.848Z,8.40
2019-04-01T22:13:10.316Z,8.40
2019-04-01T22:15:40.823Z,8.40
2019-04-01T22:18:11.213Z,8.30
2019-04-01T22:20:42.684Z,8.30
2019-04-01T22:23:13.213Z,8.30
2019-04-01T22:25:43.646Z,8.30
2019-04-01T22:28:14.216Z,8.30
2019-04-01T22:30:45.164Z,8.20
2019-04-01T22:33:16.589Z,8.20
2019-04-01T22:35:47.026Z,8.10
2019-04-01T22:38:24.928Z,8.00
2019-04-01T22:40:49.846Z,8.00
2019-04-01T22:43:20.308Z,8.00
2019-04-01T22:45:50.676Z,7.90
2019-04-01T22:48:21.201Z,7.90
2019-04-01T22:50:51.617Z,7.90
2019-04-01T22:53:22.052Z,7.90
2019-04-01T22:55:52.481Z,7.80
2019-04-01T22:58:23.172Z,7.80
2019-04-01T23:00:53.572Z,7.70
2019-04-01T23:03:24.098Z,7.70
2019-04-01T23:05:55.750Z,7.60
2019-04-01T23:08:26.436Z,7.60
2019-04-01T23:10:56.978Z,7.60
2019-04-01T23:13:27.527Z,7.50
2019-04-01T23:16:01.013Z,7.40
2019-04-01T23:18:31.469Z,7.40
2019-04-01T23:21:02.236Z,7.30
2019-04-01T23:23:35.621Z,7.30
2019-04-01T23:26:06.051Z,7.30
2019-04-01T23:28:36.542Z,7.20
2019-04-01T23:31:07.027Z,7.20
2019-04-01T23:33:37.561Z,7.20
2019-04-01T23:36:08.006Z,7.20
2019-04-01T23:38:38.432Z,7.20
2019-04-01T23:41:08.928Z,7.20
2019-04-01T23:43:39.385Z,7.20
2019-04-01T23:46:09.768Z,7.20
2019-04-01T23:48:42.056Z,7.20
2019-04-01T23:51:12.295Z,7.20
2019-04-01T23:53:42.741Z,7.20
2019-04-01T23:56:13.148Z,7.20
2019-04-01T23:58:43.536Z,7.20
